Weather observations for the past three days for
Washington, Washington-Wilkes County Airport
Imperial (Metric)
Date Time (edt) Wind (mph) Vis. (mi.) Weather Sky Cond. Temperature (ºF) Relative Humidity Wind Chill (°F) Heat Index (°F) Pressure Precipitation (in)
Air Dwpt 6 hour altimeter (in) sea level (mb) 1 hr 3 hr 6 hr
Max. Min.
05 17:35 S 8 10.00 Partly Cloudy SCT075 79.9 51.3 37% 80 29.95 0.0
05 17:15 SW 9 10.00 Partly Cloudy SCT075 79 49.6 36% 79 29.95 0.0
05 16:55 S 13 10.00 Partly Cloudy SCT075 79 50 36% 79 29.95 0.0
05 16:35 SE 12 G 17 10.00 Mostly Cloudy BKN075 79.5 49.8 35% 79 29.95 0.0
05 16:15 SW 10 10.00 Partly Cloudy SCT075 81.7 50.5 34% 81 29.96 0.0
05 15:55 S 10 10.00 Mostly Cloudy BKN075 79.5 50.2 36% 79 29.97 0.0
05 15:35 S 13 G 18 10.00 Partly Cloudy SCT075 79.7 48.7 34% 79 29.98 0.0
05 15:15 S 14 10.00 Mostly Cloudy BKN075 79.5 48.2 33% 79 29.99 0.0
05 14:55 S 9 10.00 Partly Cloudy SCT065 79.5 48.6 34% 79 30 0.0
05 14:35 SW 10 G 16 10.00 Partly Cloudy SCT065 80.1 49.6 35% 80 30.01 0.0
05 14:15 S 7 10.00 Mostly Cloudy BKN065 BKN080 78.1 50.5 38% 79 30.01 0.0
05 13:55 SW 9 10.00 Partly Cloudy SCT065 78.1 48.4 80.2 57 35% 78 30.02 0.0
05 13:35 W 9 G 20 10.00 Partly Cloudy SCT065 79 48.2 34% 79 30.02 0.0
05 13:15 S 8 10.00 Partly Cloudy SCT075 SCT085 77.4 51.4 40% 78 30.03 0.0
05 12:55 SW 13 10.00 Partly Cloudy SCT060 SCT075 SCT085 76.5 52 43% 78 30.03 0.0
05 12:35 S 8 10.00 Fair CLR 76.5 52 43% 78 30.04 0.0
05 12:15 S 7 10.00 Fair CLR 75.4 52.9 46% 78 30.04 0.0
05 11:55 S 10 10.00 Fair CLR 74.3 53.6 49% 30.05 0.0
05 11:35 SW 12 10.00 Fair CLR 74.3 54 49% 30.05 0.0
05 11:15 S 8 10.00 Fair CLR 72.9 52.5 49% 30.05 0.0
05 10:55 SE 7 10.00 Fair CLR 72 52.3 50% 30.06 0.0
05 10:35 SW 8 10.00 Fair CLR 70.9 53.2 54% 30.05 0.0
05 10:15 S 9 10.00 Fair CLR 69.1 53.8 58% 30.06 0.0
05 09:55 SW 8 10.00 Fair CLR 66.9 54.7 65% 30.04 0.0
05 09:35 SW 10 10.00 Fair CLR 65.5 55.4 70% 30.04 0.0
05 09:15 S 9 10.00 Fair CLR 63.1 56.1 78% 30.03 0.0
05 08:55 S 10 10.00 Fair CLR 61.3 55.9 83% 30.04 0.0
05 08:35 S 8 10.00 Fair CLR 59.7 55.8 87% 30.03 0.0
05 08:15 S 6 10.00 Fair CLR 58.1 55.6 91% 30.03 0.0
05 07:55 S 6 10.00 Fair CLR 56.8 55.4 57 51.3 95% 30.02 0.0
05 07:35 S 5 10.00 Fair CLR 55.4 55 99% 30.02 0.0
05 07:15 S 3 10.00 Fair CLR 53.6 0 0% 30.01 0.0
05 06:55 S 5 10.00 Fair CLR 51.8 0 0% 30.01 0.0
05 06:35 S 5 10.00 Fair CLR 51.8 0 0% 30.01 0.0
05 06:15 S 5 10.00 Fair CLR 53.4 52.9 98% 30.01 0.0
05 05:55 SW 5 10.00 Fair CLR 55 52.7 92% 30 0.0
05 05:35 SW 5 10.00 Fair CLR 55.2 52.2 90% 30.01 0.0
05 05:15 SW 6 10.00 Fair CLR 54.9 51.8 90% 30.01 0.0
05 04:55 SW 7 10.00 Fair CLR 55.6 51.8 87% 30.01 0.0
05 04:35 S 6 10.00 Fair CLR 54.9 51.1 87% 30 0.0
05 04:15 SW 6 10.00 Fair CLR 54.9 50 84% 30 0.0
05 03:55 S 5 10.00 Fair CLR 55.2 49.1 80% 30.01 0.0
05 03:35 S 5 10.00 Fair CLR 54.9 48.4 79% 30 0.0
05 03:15 S 5 10.00 Fair CLR 54.3 47.3 77% 30 0.0
05 02:55 S 3 10.00 Fair CLR 54.3 46.2 74% 30 0.0
05 02:35 S 5 10.00 Fair CLR 55.9 46 70% 30 0.0
05 02:15 S 6 10.00 Fair CLR 55.9 45.5 68% 30 0.0
05 01:55 S 8 10.00 Fair CLR 56.7 45 71.6 52.3 65% 30 0.0
05 01:35 S 8 10.00 Fair CLR 54.9 46.9 75% 30 0.0
05 01:15 S 3 10.00 Fair CLR 53.8 49.1 84% 30 0.0
05 00:55 Calm 10.00 Fair CLR 54.5 48.2 79% 30 0.0
05 00:35 SE 3 10.00 Fair CLR 54.7 48.2 79% 30 0.0
05 00:15 S 3 10.00 Fair CLR 55.2 49.1 80% 30 0.0
04 23:55 S 5 10.00 Fair CLR 56.8 49.1 75% 30.01 0.0
04 23:35 S 5 10.00 Fair CLR 58.5 47.5 67% 30.01 0.0
04 23:15 S 5 10.00 Fair CLR 59.7 47.5 64% 30.01 0.0
04 22:55 S 5 10.00 Fair CLR 60.1 48 65% 30.01 0.0
04 22:35 S 5 10.00 Fair CLR 60.4 47.5 63% 30.01 0.0
04 22:15 S 3 10.00 Fair CLR 61.2 48.7 64% 30.01 0.0
04 21:55 S 3 10.00 Fair CLR 61.2 48.9 64% 30 0.0
04 21:35 S 3 10.00 Fair CLR 63.1 48.6 59% 30 0.0
04 21:15 S 3 10.00 Fair CLR 64.9 45.7 50% 29.99 0.0
04 20:55 S 3 10.00 Fair CLR 67.3 43.3 42% 29.99 0.0
04 20:35 S 5 10.00 Fair CLR 69.4 42.1 37% 29.98 0.0
04 20:15 S 3 10.00 Fair CLR 70.3 43.2 38% 29.98 0.0
04 19:55 S 5 10.00 Fair CLR 71.8 43.2 79.9 71.8 36% 29.98 0.0
04 19:35 SW 8 10.00 Fair CLR 73 42.4 33% 29.98 0.0
04 19:15 S 6 10.00 Fair CLR 73.9 41 31% 29.97 0.0
04 18:55 S 8 10.00 Fair CLR 75 40.3 29% 77 29.97 0.0
04 18:35 S 7 10.00 Fair CLR 77 39.6 26% 77 29.97 0.0
04 18:15 S 9 10.00 Fair CLR 77 38.7 25% 77 29.97 0.0
04 17:55 SW 6 10.00 Fair CLR 77.7 39.2 25% 78 29.96 0.0
04 17:35 S 9 10.00 Fair CLR 79.5 40.1 24% 79 29.96 0.0
04 17:15 S 7 10.00 Fair CLR 78.3 41.5 27% 78 29.97 0.0
04 16:55 SW 5 10.00 Fair CLR 77.4 40.1 26% 78 29.97 0.0
04 16:35 W 3 10.00 Fair CLR 78.1 40.1 26% 78 29.97 0.0
04 16:15 W 3 10.00 Fair CLR 77.5 39.2 25% 78 29.98 0.0
04 15:55 SW 9 10.00 Fair CLR 78.8 40.6 26% 78 29.99 0.0
04 15:35 W 5 10.00 Fair CLR 77.9 39.7 25% 78 29.99 0.0
04 15:15 SW 7 10.00 Fair CLR 77.5 41.7 28% 78 30 0.0
04 14:55 NW 7 10.00 Fair CLR 77.5 41.5 28% 78 30.01 0.0
04 14:35 S 6 10.00 Fair CLR 75.7 40.3 28% 77 30.02 0.0
04 14:15 NW 6 10.00 Fair CLR 75.2 41.2 30% 77 30.02 0.0
04 13:55 N 3 10.00 Fair CLR 74.8 39.4 75.9 49.8 28% 30.03 0.0
04 13:35 SW 7 10.00 Fair CLR 74.1 40.1 29% 30.04 0.0
04 13:15 Calm 10.00 Fair CLR 73.4 41.5 32% 30.04 0.0
04 12:55 SW 9 10.00 Fair CLR 73.6 41.4 31% 30.05 0.0
04 12:35 SW 5 10.00 Fair CLR 72.9 42.3 33% 30.06 0.0
04 12:15 NW 3 10.00 Fair CLR 72.9 43.3 35% 30.07 0.0
04 11:55 NW 10 10.00 Fair CLR 71.1 43 36% 30.08 0.0
04 11:35 SW 7 10.00 Fair CLR 70.5 43.5 38% 30.08 0.0
04 11:15 SW 7 10.00 Fair CLR 69.1 42.4 38% 30.08 0.0
04 10:55 W 6 10.00 Fair CLR 68.2 42.3 39% 30.08 0.0
04 10:35 W 8 10.00 Fair CLR 67.8 41.4 38% 30.08 0.0
04 10:15 W 8 10.00 Fair CLR 66.7 43.2 43% 30.08 0.0
04 09:55 W 8 10.00 Fair CLR 65.1 44.8 48% 30.09 0.0
04 09:35 W 3 10.00 Fair CLR 62.8 47.8 58% 30.09 0.0
04 09:15 SW 5 10.00 Fair CLR 61 47.5 61% 30.09 0.0
04 08:55 Calm 10.00 Fair CLR 58.8 46.4 64% 30.09 0.0
04 08:35 Calm 10.00 Fair CLR 56.1 48 74% 30.09 0.0
04 08:15 Calm 10.00 Fair CLR 52.7 46.9 81% 30.08 0.0
04 07:55 Calm 10.00 Fair CLR 49.3 46.9 50 44.6 92% 30.08 0.0
04 07:35 SW 3 10.00 Fair CLR 46.9 46.8 99% 30.07 0.0
04 07:15 Calm 10.00 Fair CLR 45.5 45 98% 30.07 0.0
04 06:55 Calm 10.00 Fair CLR 45.5 45 98% 30.06 0.0
04 06:35 Calm 10.00 Fair CLR 45.7 44.4 95% 30.06 0.0
04 06:15 W 3 10.00 Fair CLR 45.3 44.6 97% 30.06 0.0
04 05:55 Calm 10.00 Fair CLR 46.2 45.1 96% 30.06 0.0
04 05:35 W 3 10.00 Fair CLR 46.8 44.1 90% 30.06 0.0
04 05:15 Calm 10.00 Fair CLR 46.6 44.1 91% 30.06 0.0
04 04:55 W 3 10.00 Fair CLR 48 43.5 85% 30.06 0.0
04 04:35 W 3 10.00 Fair CLR 49.1 42.8 79% 30.06 0.0
04 04:15 W 5 10.00 Fair CLR 47.8 44.2 87% 46 30.06 0.0
04 03:55 W 3 10.00 Fair CLR 46.2 45.9 99% 30.06 0.0
04 03:35 W 3 10.00 Fair CLR 47.7 45.7 93% 30.06 0.0
04 03:15 Calm 10.00 Fair CLR 48.6 43.9 84% 30.06 0.0
04 02:55 Calm 10.00 Fair CLR 48 45 89% 30.06 0.0
04 02:35 SW 3 10.00 Fair CLR 48 44.8 89% 30.06 0.0
04 02:15 S 3 10.00 Fair CLR 48.7 44.8 86% 30.06 0.0
04 01:55 S 3 10.00 Fair CLR 49.6 45.3 66.9 48.9 85% 30.07 0.0
04 01:35 SW 3 10.00 Fair CLR 50.2 48.6 94% 30.08 0.0
04 01:15 Calm 10.00 Fair CLR 52.7 43.2 70% 30.08 0.0
04 00:55 W 3 10.00 Fair CLR 53.6 43.2 68% 30.08 0.0
04 00:35 W 3 10.00 Fair CLR 51.4 45.7 81% 30.08 0.0
04 00:15 W 3 10.00 Fair CLR 53.6 42.6 67% 30.08 0.0
03 23:55 W 5 10.00 Fair CLR 53.2 42.6 67% 30.07 0.0
03 23:35 SW 6 10.00 Fair CLR 53.8 43.9 69% 30.08 0.0
03 23:15 SW 5 10.00 Fair CLR 52.5 46.6 80% 30.07 0.0
03 22:55 SW 5 10.00 Fair CLR 53.6 45.1 73% 30.07 0.0
03 22:35 SW 5 10.00 Fair CLR 55 45.3 70% 30.07 0.0
03 22:15 SW 3 10.00 Fair CLR 54.3 46.8 76% 30.06 0.0
03 21:55 Calm 10.00 Fair CLR 56.8 45.3 66% 30.05 0.0
03 21:35 Calm 10.00 Fair CLR 57 44.2 63% 30.04 0.0
03 21:15 SW 3 10.00 Fair CLR 58.1 45.5 63% 30.04 0.0
03 20:55 Calm 10.00 Fair CLR 59.4 46.2 62% 30.03 0.0
03 20:35 Calm 10.00 Fair CLR 60.3 46.6 61% 30.03 0.0
03 20:15 SW 3 10.00 Fair CLR 64.4 44.1 48% 30.02 0.0
03 19:55 W 5 10.00 Fair CLR 67.3 39.7 72.3 66.4 37% 30.02 0.0
03 19:35 SW 3 10.00 Fair CLR 69.4 37.8 31% 30.02 0.0
03 19:15 W 5 10.00 Fair CLR 70 36.3 29% 30.02 0.0
03 18:55 SW 5 10.00 Fair CLR 70.5 36.1 28% 30.02 0.0
03 18:35 S 8 10.00 Fair CLR 70.7 36.5 29% 30.02 0.0
03 18:15 W 7 10.00 Fair CLR 71.1 36.1 28% 30.03 0.0
03 17:55 W 7 10.00 Fair CLR 71.6 35.2 26% 30.03 0.0
03 17:35 NW 5 10.00 Fair CLR 71.2 34.2 26% 30.03 0.0
03 17:15 NW 9 10.00 Fair CLR 71.2 34.2 26% 30.04 0.0
03 16:55 NW 12 10.00 Fair CLR 71.6 35.6 27% 30.04 0.0
03 16:35 NW 9 10.00 Fair CLR 70.5 35.6 28% 30.05 0.0
03 16:15 W 3 10.00 Fair CLR 70.2 36.3 29% 30.05 0.0
03 15:55 W 13 G 17 10.00 Fair CLR 70.2 36.7 29% 30.06 0.0
03 15:35 W 8 10.00 Fair CLR 69.1 36.1 30% 30.08 0.0
03 14:55 NW 7 10.00 Fair CLR 68.2 36.7 31% 30.1 0.0
03 14:35 SW 5 10.00 Fair CLR 68.2 37.9 33% 30.11 0.0
03 14:15 NW 6 10.00 Fair CLR 66.9 39.2 36% 30.12 0.0
03 13:55 NW 5 10.00 Fair CLR 66.6 37.8 68.2 46.2 35% 30.12 0.0
03 13:35 SW 5 10.00 Fair CLR 64.9 40.1 40% 30.13 0.0
03 13:15 S 7 10.00 Fair CLR 64 41.9 45% 30.13 0.0
03 12:55 N 3 10.00 Partly Cloudy SCT050 64.4 39.7 40% 30.14 0.0
03 12:35 S 3 10.00 Partly Cloudy SCT049 63 40.8 44% 30.15 0.0
03 12:15 NW 6 10.00 Fair CLR 62.6 41 45% 30.15 0.0
03 11:55 S 5 10.00 Fair CLR 61.7 43 50% 30.15 0.0
03 11:35 NE 5 10.00 Fair CLR 62.2 43.3 50% 30.16 0.0
03 11:15 NE 5 10.00 Fair CLR 60.4 41.4 50% 30.16 0.0
03 10:55 E 7 10.00 Fair CLR 59.7 43.9 56% 30.16 0.0
03 10:35 NE 7 10.00 Fair CLR 59 43.9 57% 30.15 0.0
03 10:15 E 6 10.00 Fair CLR 58.5 48.2 69% 30.15 0.0
03 09:55 N 3 10.00 Fair CLR 55.8 48.9 78% 30.14 0.0
03 09:35 N 5 10.00 Fair CLR 53.4 49.6 87% 30.14 0.0
03 09:15 Calm 10.00 Fair CLR 52 49.8 92% 30.14 0.0
03 08:55 N 3 10.00 Fair CLR 50.4 50 99% 30.14 0.0
03 08:35 Calm 10.00 Fair CLR 50 0 0% 30.14 0.0
03 08:15 N 3 10.00 Fair CLR 48.2 0 0% 30.13 0.0
03 07:55 N 5 10.00 Fair CLR 46.4 0 49.3 44.2 0% 45 30.12 0.0
03 07:35 NW 3 10.00 Partly Cloudy SCT001 44.6 0 0% 30.12 0.0
03 07:15 NW 3 0.75 Fog/Mist OVC001 44.6 0 0% 30.11 0.0
03 06:55 Calm 0.50 Fog OVC001 44.6 0 0% 30.1 0.0
03 06:35 Calm 0.15 Fog OVC002 44.6 0 0% 30.09 0.0
03 06:15 Calm 0.25 Fog OVC002 46.4 0 0% 30.09 0.0
03 05:55 Calm 0.25 Fog OVC002 46.4 0 0% 30.08 0.0
03 05:35 Calm 0.50 Fog OVC002 46.4 0 0% 30.08 0.0
03 05:15 Calm 0.25 Fog OVC002 48.2 0 0% 30.08 0.0
03 04:55 W 3 0.25 Fog OVC002 48.2 0 0% 30.07 0.0
03 04:35 SW 3 0.50 Fog OVC002 48.2 0 0% 30.07 0.0
03 04:15 Calm 0.25 Fog OVC002 48.2 0 0% 30.06 0.0
03 03:55 SW 3 0.15 Fog OVC002 48.2 0 0% 30.05 0.0
03 03:35 SW 3 0.25 Fog OVC002 50 0 0% 30.05 0.0
03 03:15 SW 3 0.15 Fog OVC002 48.2 0 0% 30.04 0.0
03 02:55 Calm 0.25 Fog OVC002 48.2 0 0% 30.04 0.0
03 02:35 Calm 0.50 Fog OVC001 48.2 0 0% 30.03 0.0
03 02:15 Calm 7.00 Partly Cloudy with Haze SCT001 48.2 0 0% 30.03 0.0
03 01:55 Calm 3.50 Fog/Mist CLR 48.2 0 57.6 48.2 0% 30.04 0.0
03 01:35 Calm 3.50 Fog/Mist SCT002 48.2 0 0% 30.03 0.0
03 01:15 Calm 5.00 Partly Cloudy with Haze SCT001 48.2 0 0% 30.03 0.0
03 00:55 Calm 1.00 Fog/Mist BKN001 50 0 0% 30.04 0.0
03 00:35 Calm 4.00 Partly Cloudy with Haze SCT001 50 0 0% 30.03 0.0
03 00:15 Calm 7.00 Fair with Haze CLR 50 0 0% 30.03 0.0
02 23:55 Calm 4.00 Fog/Mist CLR 51.8 0 0% 30.02 0.0
02 23:35 Calm 5.00 Fair with Haze CLR 51.8 0 0% 30.02 0.0
02 23:15 SE 5 5.00 Fair with Haze CLR 51.8 0 0% 30.01 0.0
02 22:55 Calm 2.50 Fog/Mist CLR 51.8 0 0% 30.01 0.0
02 22:35 Calm 5.00 Partly Cloudy with Haze SCT050 53.6 0 0% 30.01 0.0
02 22:15 Calm 7.00 Fair with Haze CLR 53.6 0 0% 30 0.0
02 21:55 Calm 7.00 Partly Cloudy SCT055 53.6 0 0% 29.98 0.0
02 21:35 Calm 10.00 Fair CLR 55.4 0 0% 29.97 0.0
02 21:15 Calm 10.00 Partly Cloudy SCT085 55.4 0 0% 29.96 0.0
02 20:55 Calm 10.00 Overcast SCT048 SCT060 OVC085 55.4 0 0% 29.95 0.0
02 20:35 S 5 10.00 Overcast BKN050 BKN055 OVC070 57.2 0 0% 29.94 0.0
02 20:15 SW 5 10.00 Overcast SCT060 BKN065 OVC095 57.2 0 0% 29.92 0.0
02 19:55 SE 5 7.00 Light Rain Fog/Mist SCT060 BKN070 OVC090 57.2 57.2 64.9 57.4 100% 29.9 0.0
02 19:35 E 3 10.00 Light Rain BKN060 BKN080 OVC090 59.2 55.8 89% 29.9 0.0
02 19:15 E 6 10.00 Light Rain SCT037 SCT048 OVC065 59.9 56.7 89% 29.9 0.0
02 18:55 NE 5 10.00 Mostly Cloudy SCT048 BKN060 BKN070 61.3 54 77% 29.89 0.0
02 18:35 E 8 10.00 Partly Cloudy SCT060 SCT090 61.9 53.6 74% 29.89 0.0
02 18:15 E 6 10.00 Mostly Cloudy SCT029 SCT049 BKN100 62.6 53.4 72% 29.88 0.0
02 17:55 E 5 10.00 Mostly Cloudy BKN100 62.8 53.2 71% 29.88 0.0
Date Time (edt) Wind (mph) Vis. (mi.) Weather Sky Cond. Air Dwpt Max. Min. Relative Humidity Wind Chill (°F) Heat Index (°F) altimeter (in) sea level (mb) 1 hr 3 hr 6 hr
6 hour
Temperature (ºF) Pressure Precipitation (in)